sensor_id;sensor_type;location;lat;lon;timestamp;temperature;humidity
80367;DHT22;70058;42.660;23.366;2023-08-01T00:00:32;23.00;48.30
80367;DHT22;70058;42.660;23.366;2023-08-01T00:02:59;22.90;48.30
80367;DHT22;70058;42.660;23.366;2023-08-01T00:05:24;23.00;48.10
80367;DHT22;70058;42.660;23.366;2023-08-01T00:07:51;23.00;48.10
80367;DHT22;70058;42.660;23.366;2023-08-01T00:10:17;22.90;48.30
80367;DHT22;70058;42.660;23.366;2023-08-01T00:12:42;22.80;48.20
80367;DHT22;70058;42.660;23.366;2023-08-01T00:15:08;22.90;48.40
80367;DHT22;70058;42.660;23.366;2023-08-01T00:17:34;22.90;48.20
80367;DHT22;70058;42.660;23.366;2023-08-01T00:20:02;22.90;48.30
80367;DHT22;70058;42.660;23.366;2023-08-01T00:22:27;22.90;48.30
80367;DHT22;70058;42.660;23.366;2023-08-01T00:24:53;22.80;48.30
80367;DHT22;70058;42.660;23.366;2023-08-01T00:27:19;22.80;48.40
80367;DHT22;70058;42.660;23.366;2023-08-01T00:29:45;22.90;48.20
80367;DHT22;70058;42.660;23.366;2023-08-01T00:32:11;22.90;48.30
80367;DHT22;70058;42.660;23.366;2023-08-01T00:34:37;22.80;48.40
80367;DHT22;70058;42.660;23.366;2023-08-01T00:37:03;22.80;48.40
80367;DHT22;70058;42.660;23.366;2023-08-01T00:39:29;22.80;48.30
80367;DHT22;70058;42.660;23.366;2023-08-01T00:41:55;22.80;48.40
80367;DHT22;70058;42.660;23.366;2023-08-01T00:44:20;22.80;48.50
80367;DHT22;70058;42.660;23.366;2023-08-01T00:46:46;22.90;48.50
80367;DHT22;70058;42.660;23.366;2023-08-01T00:49:13;22.90;48.30
80367;DHT22;70058;42.660;23.366;2023-08-01T00:51:39;22.80;48.20
80367;DHT22;70058;42.660;23.366;2023-08-01T00:54:05;22.80;48.30
80367;DHT22;70058;42.660;23.366;2023-08-01T00:56:31;22.90;48.10
80367;DHT22;70058;42.660;23.366;2023-08-01T00:58:56;22.90;47.90
80367;DHT22;70058;42.660;23.366;2023-08-01T01:01:22;22.90;47.90
80367;DHT22;70058;42.660;23.366;2023-08-01T01:03:48;22.90;48.00
80367;DHT22;70058;42.660;23.366;2023-08-01T01:06:44;22.80;48.20
80367;DHT22;70058;42.660;23.366;2023-08-01T01:09:19;22.90;47.90
80367;DHT22;70058;42.660;23.366;2023-08-01T01:11:46;22.90;47.70
80367;DHT22;70058;42.660;23.366;2023-08-01T01:14:12;23.00;47.40
80367;DHT22;70058;42.660;23.366;2023-08-01T01:16:38;23.10;47.30
80367;DHT22;70058;42.660;23.366;2023-08-01T01:19:08;23.10;47.30
80367;DHT22;70058;42.660;23.366;2023-08-01T01:21:59;23.00;47.30
80367;DHT22;70058;42.660;23.366;2023-08-01T01:24:26;22.90;47.40
80367;DHT22;70058;42.660;23.366;2023-08-01T01:26:54;22.90;47.50
80367;DHT22;70058;42.660;23.366;2023-08-01T01:29:20;22.90;47.20
80367;DHT22;70058;42.660;23.366;2023-08-01T01:31:47;23.00;47.00
80367;DHT22;70058;42.660;23.366;2023-08-01T01:34:14;23.00;47.10
80367;DHT22;70058;42.660;23.366;2023-08-01T01:36:39;23.00;46.80
80367;DHT22;70058;42.660;23.366;2023-08-01T01:39:05;23.00;46.60
80367;DHT22;70058;42.660;23.366;2023-08-01T01:41:31;23.00;46.60
80367;DHT22;70058;42.660;23.366;2023-08-01T01:43:56;23.00;46.20
80367;DHT22;70058;42.660;23.366;2023-08-01T01:46:22;22.90;46.30
80367;DHT22;70058;42.660;23.366;2023-08-01T01:48:47;22.90;46.40
80367;DHT22;70058;42.660;23.366;2023-08-01T01:51:13;22.80;46.60
80367;DHT22;70058;42.660;23.366;2023-08-01T01:53:39;22.70;46.90
80367;DHT22;70058;42.660;23.366;2023-08-01T01:56:04;22.60;46.80
80367;DHT22;70058;42.660;23.366;2023-08-01T01:58:30;22.60;47.00
80367;DHT22;70058;42.660;23.366;2023-08-01T02:00:55;22.50;47.50
80367;DHT22;70058;42.660;23.366;2023-08-01T02:03:21;22.40;47.50
80367;DHT22;70058;42.660;23.366;2023-08-01T02:05:47;22.40;47.80
80367;DHT22;70058;42.660;23.366;2023-08-01T02:08:12;22.30;47.80
80367;DHT22;70058;42.660;23.366;2023-08-01T02:10:38;22.20;48.10
80367;DHT22;70058;42.660;23.366;2023-08-01T02:13:04;22.20;48.10
80367;DHT22;70058;42.660;23.366;2023-08-01T02:15:30;22.20;48.30
80367;DHT22;70058;42.660;23.366;2023-08-01T02:17:56;22.10;48.30
80367;DHT22;70058;42.660;23.366;2023-08-01T02:20:21;22.10;48.40
80367;DHT22;70058;42.660;23.366;2023-08-01T02:22:47;22.10;48.60
80367;DHT22;70058;42.660;23.366;2023-08-01T02:25:13;22.00;48.90
80367;DHT22;70058;42.660;23.366;2023-08-01T02:27:38;22.00;49.00
80367;DHT22;70058;42.660;23.366;2023-08-01T02:30:05;21.90;49.30
80367;DHT22;70058;42.660;23.366;2023-08-01T02:32:31;22.00;49.30
80367;DHT22;70058;42.660;23.366;2023-08-01T02:34:56;21.90;49.40
80367;DHT22;70058;42.660;23.366;2023-08-01T02:37:22;21.90;49.50
80367;DHT22;70058;42.660;23.366;2023-08-01T02:39:47;21.80;49.60
80367;DHT22;70058;42.660;23.366;2023-08-01T02:42:13;21.80;49.70
80367;DHT22;70058;42.660;23.366;2023-08-01T02:44:39;21.70;49.80
80367;DHT22;70058;42.660;23.366;2023-08-01T02:47:04;21.80;49.70
80367;DHT22;70058;42.660;23.366;2023-08-01T02:49:31;21.70;49.90
80367;DHT22;70058;42.660;23.366;2023-08-01T02:51:57;21.60;50.00
80367;DHT22;70058;42.660;23.366;2023-08-01T02:54:24;21.60;50.00
80367;DHT22;70058;42.660;23.366;2023-08-01T02:56:50;21.60;50.10
80367;DHT22;70058;42.660;23.366;2023-08-01T02:59:16;21.60;49.90
80367;DHT22;70058;42.660;23.366;2023-08-01T03:01:45;21.60;50.00
80367;DHT22;70058;42.660;23.366;2023-08-01T03:04:11;21.60;50.10
80367;DHT22;70058;42.660;23.366;2023-08-01T03:06:40;21.50;50.40
80367;DHT22;70058;42.660;23.366;2023-08-01T03:09:05;21.50;50.50
80367;DHT22;70058;42.660;23.366;2023-08-01T03:11:35;21.40;50.40
80367;DHT22;70058;42.660;23.366;2023-08-01T03:14:01;21.40;50.50
80367;DHT22;70058;42.660;23.366;2023-08-01T03:16:26;21.40;50.40
80367;DHT22;70058;42.660;23.366;2023-08-01T03:18:52;21.50;50.50
80367;DHT22;70058;42.660;23.366;2023-08-01T03:21:18;21.50;50.50
80367;DHT22;70058;42.660;23.366;2023-08-01T03:23:43;21.40;50.50
80367;DHT22;70058;42.660;23.366;2023-08-01T03:26:09;21.40;50.60
80367;DHT22;70058;42.660;23.366;2023-08-01T03:28:35;21.40;50.70
80367;DHT22;70058;42.660;23.366;2023-08-01T03:31:01;21.40;50.70
80367;DHT22;70058;42.660;23.366;2023-08-01T03:33:27;21.50;50.50
80367;DHT22;70058;42.660;23.366;2023-08-01T03:35:53;21.60;50.30
80367;DHT22;70058;42.660;23.366;2023-08-01T03:38:18;21.50;50.60
80367;DHT22;70058;42.660;23.366;2023-08-01T03:40:44;21.50;50.80
80367;DHT22;70058;42.660;23.366;2023-08-01T03:43:10;21.50;51.40
80367;DHT22;70058;42.660;23.366;2023-08-01T03:45:39;21.50;51.20
80367;DHT22;70058;42.660;23.366;2023-08-01T03:48:04;21.50;51.10
80367;DHT22;70058;42.660;23.366;2023-08-01T03:50:30;21.40;51.20
80367;DHT22;70058;42.660;23.366;2023-08-01T03:52:56;21.30;51.40
80367;DHT22;70058;42.660;23.366;2023-08-01T03:55:21;21.20;51.50
80367;DHT22;70058;42.660;23.366;2023-08-01T03:57:47;21.20;51.80
80367;DHT22;70058;42.660;23.366;2023-08-01T04:00:12;21.10;52.00
80367;DHT22;70058;42.660;23.366;2023-08-01T04:02:43;21.10;51.90
80367;DHT22;70058;42.660;23.366;2023-08-01T04:05:09;21.10;52.30
80367;DHT22;70058;42.660;23.366;2023-08-01T04:07:38;21.10;52.20
80367;DHT22;70058;42.660;23.366;2023-08-01T04:10:05;21.20;52.20
80367;DHT22;70058;42.660;23.366;2023-08-01T04:12:34;21.20;52.00
80367;DHT22;70058;42.660;23.366;2023-08-01T04:15:00;21.40;51.40
80367;DHT22;70058;42.660;23.366;2023-08-01T04:17:26;21.40;51.20
80367;DHT22;70058;42.660;23.366;2023-08-01T04:19:52;21.50;51.10
80367;DHT22;70058;42.660;23.366;2023-08-01T04:22:18;21.50;50.80
80367;DHT22;70058;42.660;23.366;2023-08-01T04:24:44;21.50;51.00
80367;DHT22;70058;42.660;23.366;2023-08-01T04:27:09;21.60;50.90
80367;DHT22;70058;42.660;23.366;2023-08-01T04:29:35;21.60;50.70
80367;DHT22;70058;42.660;23.366;2023-08-01T04:32:01;21.80;50.40
80367;DHT22;70058;42.660;23.366;2023-08-01T04:34:26;22.10;49.20
80367;DHT22;70058;42.660;23.366;2023-08-01T04:36:52;22.40;48.30
80367;DHT22;70058;42.660;23.366;2023-08-01T04:39:18;22.60;47.70
80367;DHT22;70058;42.660;23.366;2023-08-01T04:41:43;22.70;47.30
80367;DHT22;70058;42.660;23.366;2023-08-01T04:44:09;22.90;46.60
80367;DHT22;70058;42.660;23.366;2023-08-01T04:46:34;23.20;46.10
80367;DHT22;70058;42.660;23.366;2023-08-01T04:49:00;23.10;46.00
80367;DHT22;70058;42.660;23.366;2023-08-01T04:51:26;23.10;45.80
80367;DHT22;70058;42.660;23.366;2023-08-01T04:53:52;22.80;45.90
80367;DHT22;70058;42.660;23.366;2023-08-01T04:56:17;22.70;46.50
80367;DHT22;70058;42.660;23.366;2023-08-01T04:58:43;22.60;46.70
80367;DHT22;70058;42.660;23.366;2023-08-01T05:01:09;22.60;47.00
80367;DHT22;70058;42.660;23.366;2023-08-01T05:03:34;22.70;47.10
80367;DHT22;70058;42.660;23.366;2023-08-01T05:06:00;22.70;46.70
80367;DHT22;70058;42.660;23.366;2023-08-01T05:08:26;22.80;46.40
80367;DHT22;70058;42.660;23.366;2023-08-01T05:10:51;22.80;46.70
80367;DHT22;70058;42.660;23.366;2023-08-01T05:13:17;22.90;46.50
80367;DHT22;70058;42.660;23.366;2023-08-01T05:15:46;23.00;46.10
80367;DHT22;70058;42.660;23.366;2023-08-01T05:18:18;23.10;46.00
80367;DHT22;70058;42.660;23.366;2023-08-01T05:20:44;23.20;46.00
80367;DHT22;70058;42.660;23.366;2023-08-01T05:23:10;23.30;45.30
80367;DHT22;70058;42.660;23.366;2023-08-01T05:25:35;23.40;44.90
80367;DHT22;70058;42.660;23.366;2023-08-01T05:28:01;23.40;45.00
80367;DHT22;70058;42.660;23.366;2023-08-01T05:30:27;23.40;45.10
80367;DHT22;70058;42.660;23.366;2023-08-01T05:32:52;23.50;44.50
80367;DHT22;70058;42.660;23.366;2023-08-01T05:35:19;23.50;44.30
80367;DHT22;70058;42.660;23.366;2023-08-01T05:37:46;23.50;44.30
80367;DHT22;70058;42.660;23.366;2023-08-01T05:40:12;23.60;44.60
80367;DHT22;70058;42.660;23.366;2023-08-01T05:42:37;23.70;43.70
80367;DHT22;70058;42.660;23.366;2023-08-01T05:45:03;23.80;43.40
80367;DHT22;70058;42.660;23.366;2023-08-01T05:47:30;23.90;43.60
80367;DHT22;70058;42.660;23.366;2023-08-01T05:49:55;23.90;43.60
80367;DHT22;70058;42.660;23.366;2023-08-01T05:52:21;24.00;43.30
80367;DHT22;70058;42.660;23.366;2023-08-01T05:54:47;24.20;43.20
80367;DHT22;70058;42.660;23.366;2023-08-01T05:57:13;24.30;42.80
80367;DHT22;70058;42.660;23.366;2023-08-01T05:59:38;24.50;41.80
80367;DHT22;70058;42.660;23.366;2023-08-01T06:02:04;24.70;41.00
80367;DHT22;70058;42.660;23.366;2023-08-01T06:04:30;24.90;40.50
80367;DHT22;70058;42.660;23.366;2023-08-01T06:06:56;25.10;39.90
80367;DHT22;70058;42.660;23.366;2023-08-01T06:09:22;25.70;39.10
80367;DHT22;70058;42.660;23.366;2023-08-01T06:11:48;27.40;36.60
80367;DHT22;70058;42.660;23.366;2023-08-01T06:14:14;30.20;32.40
80367;DHT22;70058;42.660;23.366;2023-08-01T06:16:39;32.10;29.30
80367;DHT22;70058;42.660;23.366;2023-08-01T06:19:05;32.90;28.30
80367;DHT22;70058;42.660;23.366;2023-08-01T06:21:31;34.10;26.50
80367;DHT22;70058;42.660;23.366;2023-08-01T06:23:56;35.70;25.40
80367;DHT22;70058;42.660;23.366;2023-08-01T06:26:22;37.60;24.00
80367;DHT22;70058;42.660;23.366;2023-08-01T06:28:47;39.30;22.50
80367;DHT22;70058;42.660;23.366;2023-08-01T06:31:13;40.70;21.70
80367;DHT22;70058;42.660;23.366;2023-08-01T06:33:39;41.90;20.30
80367;DHT22;70058;42.660;23.366;2023-08-01T06:36:05;42.70;19.90
80367;DHT22;70058;42.660;23.366;2023-08-01T06:38:31;43.50;19.20
80367;DHT22;70058;42.660;23.366;2023-08-01T06:40:57;44.50;18.80
80367;DHT22;70058;42.660;23.366;2023-08-01T06:43:22;44.60;18.50
80367;DHT22;70058;42.660;23.366;2023-08-01T06:45:50;42.80;19.00
80367;DHT22;70058;42.660;23.366;2023-08-01T06:48:15;43.40;19.10
80367;DHT22;70058;42.660;23.366;2023-08-01T06:50:41;44.60;18.30
80367;DHT22;70058;42.660;23.366;2023-08-01T06:53:07;45.10;17.90
80367;DHT22;70058;42.660;23.366;2023-08-01T06:55:34;45.90;17.30
80367;DHT22;70058;42.660;23.366;2023-08-01T06:57:59;46.00;17.00
80367;DHT22;70058;42.660;23.366;2023-08-01T07:00:25;46.60;17.10
80367;DHT22;70058;42.660;23.366;2023-08-01T07:02:51;46.90;16.80
80367;DHT22;70058;42.660;23.366;2023-08-01T07:05:16;46.90;16.40
80367;DHT22;70058;42.660;23.366;2023-08-01T07:07:42;47.60;16.40
80367;DHT22;70058;42.660;23.366;2023-08-01T07:10:08;48.40;15.80
80367;DHT22;70058;42.660;23.366;2023-08-01T07:12:34;47.80;16.10
80367;DHT22;70058;42.660;23.366;2023-08-01T07:14:59;48.80;15.80
80367;DHT22;70058;42.660;23.366;2023-08-01T07:17:25;49.60;15.30
80367;DHT22;70058;42.660;23.366;2023-08-01T07:19:51;50.00;15.10
80367;DHT22;70058;42.660;23.366;2023-08-01T07:22:16;50.60;14.80
80367;DHT22;70058;42.660;23.366;2023-08-01T07:24:42;50.90;14.50
80367;DHT22;70058;42.660;23.366;2023-08-01T07:27:08;50.80;14.40
80367;DHT22;70058;42.660;23.366;2023-08-01T07:29:33;50.90;14.20
80367;DHT22;70058;42.660;23.366;2023-08-01T07:31:59;51.10;14.10
80367;DHT22;70058;42.660;23.366;2023-08-01T07:34:24;51.20;14.00
80367;DHT22;70058;42.660;23.366;2023-08-01T07:36:50;51.30;14.00
80367;DHT22;70058;42.660;23.366;2023-08-01T07:39:16;51.30;13.90
80367;DHT22;70058;42.660;23.366;2023-08-01T07:41:42;51.20;14.00
80367;DHT22;70058;42.660;23.366;2023-08-01T07:44:07;51.50;13.80
80367;DHT22;70058;42.660;23.366;2023-08-01T07:46:33;51.10;14.00
80367;DHT22;70058;42.660;23.366;2023-08-01T07:48:59;51.50;14.00
80367;DHT22;70058;42.660;23.366;2023-08-01T07:51:25;52.00;13.60
80367;DHT22;70058;42.660;23.366;2023-08-01T07:53:52;52.40;13.40
80367;DHT22;70058;42.660;23.366;2023-08-01T07:56:19;53.00;13.40
80367;DHT22;70058;42.660;23.366;2023-08-01T07:58:44;53.40;12.90
80367;DHT22;70058;42.660;23.366;2023-08-01T08:01:10;53.70;12.70
80367;DHT22;70058;42.660;23.366;2023-08-01T08:03:36;54.30;12.50
80367;DHT22;70058;42.660;23.366;2023-08-01T08:06:01;54.50;12.50
80367;DHT22;70058;42.660;23.366;2023-08-01T08:08:29;54.40;12.30
80367;DHT22;70058;42.660;23.366;2023-08-01T08:10:55;54.00;12.20
80367;DHT22;70058;42.660;23.366;2023-08-01T08:13:20;54.10;12.50
80367;DHT22;70058;42.660;23.366;2023-08-01T08:15:46;54.00;12.40
80367;DHT22;70058;42.660;23.366;2023-08-01T08:18:12;54.40;12.30
80367;DHT22;70058;42.660;23.366;2023-08-01T08:20:45;54.80;12.10
80367;DHT22;70058;42.660;23.366;2023-08-01T08:23:11;54.90;12.00
80367;DHT22;70058;42.660;23.366;2023-08-01T08:25:41;54.90;12.00
80367;DHT22;70058;42.660;23.366;2023-08-01T08:28:07;54.60;12.00
80367;DHT22;70058;42.660;23.366;2023-08-01T08:30:34;55.00;12.10
80367;DHT22;70058;42.660;23.366;2023-08-01T08:33:00;55.20;11.80
80367;DHT22;70058;42.660;23.366;2023-08-01T08:35:30;55.20;11.80
80367;DHT22;70058;42.660;23.366;2023-08-01T08:37:58;55.30;11.80
80367;DHT22;70058;42.660;23.366;2023-08-01T08:40:23;55.40;11.60
80367;DHT22;70058;42.660;23.366;2023-08-01T08:42:49;55.60;11.40
80367;DHT22;70058;42.660;23.366;2023-08-01T08:45:19;55.90;11.40
80367;DHT22;70058;42.660;23.366;2023-08-01T08:47:49;55.80;11.40
80367;DHT22;70058;42.660;23.366;2023-08-01T08:50:19;55.00;11.70
80367;DHT22;70058;42.660;23.366;2023-08-01T08:52:45;55.30;11.50
80367;DHT22;70058;42.660;23.366;2023-08-01T08:55:11;55.80;11.30
80367;DHT22;70058;42.660;23.366;2023-08-01T08:57:38;56.20;11.30
80367;DHT22;70058;42.660;23.366;2023-08-01T09:00:05;56.20;11.20
80367;DHT22;70058;42.660;23.366;2023-08-01T09:02:32;55.90;11.20
80367;DHT22;70058;42.660;23.366;2023-08-01T09:04:59;55.60;11.20
80367;DHT22;70058;42.660;23.366;2023-08-01T09:07:29;55.60;11.30
80367;DHT22;70058;42.660;23.366;2023-08-01T09:09:55;56.40;10.90
80367;DHT22;70058;42.660;23.366;2023-08-01T09:12:21;56.80;10.60
80367;DHT22;70058;42.660;23.366;2023-08-01T09:14:56;57.30;10.60
80367;DHT22;70058;42.660;23.366;2023-08-01T09:17:22;57.70;10.40
80367;DHT22;70058;42.660;23.366;2023-08-01T09:19:47;58.00;10.20
80367;DHT22;70058;42.660;23.366;2023-08-01T09:22:13;58.00;10.20
80367;DHT22;70058;42.660;23.366;2023-08-01T09:24:50;57.30;10.10
80367;DHT22;70058;42.660;23.366;2023-08-01T09:27:16;56.70;10.60
80367;DHT22;70058;42.660;23.366;2023-08-01T09:29:42;57.00;10.50
80367;DHT22;70058;42.660;23.366;2023-08-01T09:32:14;56.20;10.50
80367;DHT22;70058;42.660;23.366;2023-08-01T09:34:41;55.20;11.10
80367;DHT22;70058;42.660;23.366;2023-08-01T09:37:07;54.00;11.60
80367;DHT22;70058;42.660;23.366;2023-08-01T09:39:33;54.40;11.50
80367;DHT22;70058;42.660;23.366;2023-08-01T09:42:00;55.00;11.10
80367;DHT22;70058;42.660;23.366;2023-08-01T09:44:27;56.40;10.70
80367;DHT22;70058;42.660;23.366;2023-08-01T09:47:03;57.50;10.30
80367;DHT22;70058;42.660;23.366;2023-08-01T09:49:30;58.30;10.00
80367;DHT22;70058;42.660;23.366;2023-08-01T09:51:57;59.20;9.80
80367;DHT22;70058;42.660;23.366;2023-08-01T09:54:23;58.90;9.50
80367;DHT22;70058;42.660;23.366;2023-08-01T09:56:50;59.30;9.60
80367;DHT22;70058;42.660;23.366;2023-08-01T09:59:24;59.40;9.60
80367;DHT22;70058;42.660;23.366;2023-08-01T10:01:53;59.40;9.60
80367;DHT22;70058;42.660;23.366;2023-08-01T10:04:25;59.60;9.30
80367;DHT22;70058;42.660;23.366;2023-08-01T10:06:58;59.40;9.50
80367;DHT22;70058;42.660;23.366;2023-08-01T10:09:25;59.50;9.40
80367;DHT22;70058;42.660;23.366;2023-08-01T10:11:52;59.10;9.40
80367;DHT22;70058;42.660;23.366;2023-08-01T10:14:20;58.40;9.60
80367;DHT22;70058;42.660;23.366;2023-08-01T10:16:46;56.50;10.40
80367;DHT22;70058;42.660;23.366;2023-08-01T10:19:13;53.90;11.70
80367;DHT22;70058;42.660;23.366;2023-08-01T10:21:41;53.20;11.90
80367;DHT22;70058;42.660;23.366;2023-08-01T10:24:08;53.50;11.70
80367;DHT22;70058;42.660;23.366;2023-08-01T10:26:35;54.00;11.80
80367;DHT22;70058;42.660;23.366;2023-08-01T10:29:00;53.90;11.60
80367;DHT22;70058;42.660;23.366;2023-08-01T10:31:27;53.50;12.60
80367;DHT22;70058;42.660;23.366;2023-08-01T10:34:07;52.90;12.10
80367;DHT22;70058;42.660;23.366;2023-08-01T10:36:33;51.90;12.70
80367;DHT22;70058;42.660;23.366;2023-08-01T10:39:00;50.70;13.50
80367;DHT22;70058;42.660;23.366;2023-08-01T10:41:30;48.70;14.20
80367;DHT22;70058;42.660;23.366;2023-08-01T10:44:15;46.30;15.30
80367;DHT22;70058;42.660;23.366;2023-08-01T10:47:01;43.60;16.50
80367;DHT22;70058;42.660;23.366;2023-08-01T10:49:40;41.00;18.70
80367;DHT22;70058;42.660;23.366;2023-08-01T10:54:59;39.20;19.90
80367;DHT22;70058;42.660;23.366;2023-08-01T10:57:26;38.70;20.30
80367;DHT22;70058;42.660;23.366;2023-08-01T10:59:53;38.40;20.40
80367;DHT22;70058;42.660;23.366;2023-08-01T11:02:22;37.80;20.70
80367;DHT22;70058;42.660;23.366;2023-08-01T11:05:04;37.10;21.40
80367;DHT22;70058;42.660;23.366;2023-08-01T11:07:30;36.70;21.80
80367;DHT22;70058;42.660;23.366;2023-08-01T11:10:12;36.30;22.30
80367;DHT22;70058;42.660;23.366;2023-08-01T11:12:42;35.80;22.50
80367;DHT22;70058;42.660;23.366;2023-08-01T11:15:10;35.10;22.80
80367;DHT22;70058;42.660;23.366;2023-08-01T11:17:39;35.20;22.90
80367;DHT22;70058;42.660;23.366;2023-08-01T11:20:10;33.70;23.20
80367;DHT22;70058;42.660;23.366;2023-08-01T11:22:37;33.40;24.20
80367;DHT22;70058;42.660;23.366;2023-08-01T11:25:04;33.50;23.60
80367;DHT22;70058;42.660;23.366;2023-08-01T11:27:29;33.70;23.60
80367;DHT22;70058;42.660;23.366;2023-08-01T11:29:55;33.50;24.20
80367;DHT22;70058;42.660;23.366;2023-08-01T11:32:31;33.70;23.80
80367;DHT22;70058;42.660;23.366;2023-08-01T11:34:58;33.60;23.50
80367;DHT22;70058;42.660;23.366;2023-08-01T11:37:26;33.60;24.20
80367;DHT22;70058;42.660;23.366;2023-08-01T11:39:52;33.60;24.30
80367;DHT22;70058;42.660;23.366;2023-08-01T11:42:17;33.40;23.70
80367;DHT22;70058;42.660;23.366;2023-08-01T11:44:44;33.50;24.10
80367;DHT22;70058;42.660;23.366;2023-08-01T11:47:14;33.50;23.80
80367;DHT22;70058;42.660;23.366;2023-08-01T11:49:48;33.30;23.90
80367;DHT22;70058;42.660;23.366;2023-08-01T11:52:24;33.10;24.20
80367;DHT22;70058;42.660;23.366;2023-08-01T11:54:50;32.60;24.30
80367;DHT22;70058;42.660;23.366;2023-08-01T11:57:15;32.40;24.30
80367;DHT22;70058;42.660;23.366;2023-08-01T11:59:48;31.80;25.20
80367;DHT22;70058;42.660;23.366;2023-08-01T12:02:27;32.20;25.00
80367;DHT22;70058;42.660;23.366;2023-08-01T12:04:55;31.60;24.90
80367;DHT22;70058;42.660;23.366;2023-08-01T12:07:21;31.70;25.30
80367;DHT22;70058;42.660;23.366;2023-08-01T12:10:00;31.60;25.10
80367;DHT22;70058;42.660;23.366;2023-08-01T12:12:27;31.70;25.60
80367;DHT22;70058;42.660;23.366;2023-08-01T12:14:53;31.70;25.60
80367;DHT22;70058;42.660;23.366;2023-08-01T12:17:20;32.10;25.50
80367;DHT22;70058;42.660;23.366;2023-08-01T12:19:46;31.90;24.80
80367;DHT22;70058;42.660;23.366;2023-08-01T12:22:12;32.00;24.60
80367;DHT22;70058;42.660;23.366;2023-08-01T12:24:38;32.20;25.20
80367;DHT22;70058;42.660;23.366;2023-08-01T12:27:06;32.20;24.30
80367;DHT22;70058;42.660;23.366;2023-08-01T12:29:32;32.40;24.30
80367;DHT22;70058;42.660;23.366;2023-08-01T12:31:58;30.70;25.50
80367;DHT22;70058;42.660;23.366;2023-08-01T12:34:23;30.40;25.30
80367;DHT22;70058;42.660;23.366;2023-08-01T12:36:49;30.60;24.00
80367;DHT22;70058;42.660;23.366;2023-08-01T12:39:14;30.70;23.30
80367;DHT22;70058;42.660;23.366;2023-08-01T12:41:40;31.00;22.90
80367;DHT22;70058;42.660;23.366;2023-08-01T12:44:06;31.40;23.20
80367;DHT22;70058;42.660;23.366;2023-08-01T12:46:32;31.80;22.50
80367;DHT22;70058;42.660;23.366;2023-08-01T12:48:57;32.00;22.40
80367;DHT22;70058;42.660;23.366;2023-08-01T12:51:23;32.20;21.80
80367;DHT22;70058;42.660;23.366;2023-08-01T12:53:48;32.50;21.00
80367;DHT22;70058;42.660;23.366;2023-08-01T12:56:14;32.60;20.80
80367;DHT22;70058;42.660;23.366;2023-08-01T12:58:40;32.70;20.70
80367;DHT22;70058;42.660;23.366;2023-08-01T13:01:06;32.90;20.50
80367;DHT22;70058;42.660;23.366;2023-08-01T13:03:31;32.90;20.50
80367;DHT22;70058;42.660;23.366;2023-08-01T13:05:57;32.90;20.50
80367;DHT22;70058;42.660;23.366;2023-08-01T13:08:23;32.90;21.00
80367;DHT22;70058;42.660;23.366;2023-08-01T13:10:49;33.00;20.70
80367;DHT22;70058;42.660;23.366;2023-08-01T13:13:16;33.20;20.80
80367;DHT22;70058;42.660;23.366;2023-08-01T13:15:42;33.20;20.40
80367;DHT22;70058;42.660;23.366;2023-08-01T13:18:07;33.20;20.50
80367;DHT22;70058;42.660;23.366;2023-08-01T13:20:33;33.20;20.80
80367;DHT22;70058;42.660;23.366;2023-08-01T13:22:58;33.20;20.90
80367;DHT22;70058;42.660;23.366;2023-08-01T13:25:24;33.30;21.00
80367;DHT22;70058;42.660;23.366;2023-08-01T13:27:50;33.20;20.60
80367;DHT22;70058;42.660;23.366;2023-08-01T13:30:15;33.20;20.70
80367;DHT22;70058;42.660;23.366;2023-08-01T13:32:44;33.20;20.90
80367;DHT22;70058;42.660;23.366;2023-08-01T13:35:10;33.20;20.90
80367;DHT22;70058;42.660;23.366;2023-08-01T13:37:36;33.00;21.30
80367;DHT22;70058;42.660;23.366;2023-08-01T13:40:03;33.10;21.60
80367;DHT22;70058;42.660;23.366;2023-08-01T13:42:28;33.20;21.60
80367;DHT22;70058;42.660;23.366;2023-08-01T13:44:54;33.20;21.60
80367;DHT22;70058;42.660;23.366;2023-08-01T13:47:20;33.10;21.80
80367;DHT22;70058;42.660;23.366;2023-08-01T13:49:45;33.10;21.50
80367;DHT22;70058;42.660;23.366;2023-08-01T13:52:11;33.00;21.50
80367;DHT22;70058;42.660;23.366;2023-08-01T13:54:37;33.10;21.70
80367;DHT22;70058;42.660;23.366;2023-08-01T13:57:03;33.00;21.20
80367;DHT22;70058;42.660;23.366;2023-08-01T13:59:28;33.00;21.50
80367;DHT22;70058;42.660;23.366;2023-08-01T14:01:54;32.90;21.10
80367;DHT22;70058;42.660;23.366;2023-08-01T14:04:20;33.00;20.90
80367;DHT22;70058;42.660;23.366;2023-08-01T14:06:46;33.00;20.90
80367;DHT22;70058;42.660;23.366;2023-08-01T14:09:12;33.00;20.90
80367;DHT22;70058;42.660;23.366;2023-08-01T14:11:38;33.00;20.90
80367;DHT22;70058;42.660;23.366;2023-08-01T14:14:04;32.90;21.10
80367;DHT22;70058;42.660;23.366;2023-08-01T14:16:30;32.90;21.10
80367;DHT22;70058;42.660;23.366;2023-08-01T14:18:56;32.80;21.00
80367;DHT22;70058;42.660;23.366;2023-08-01T14:21:22;32.90;20.90
80367;DHT22;70058;42.660;23.366;2023-08-01T14:23:48;32.80;21.40
80367;DHT22;70058;42.660;23.366;2023-08-01T14:26:13;32.90;21.50
80367;DHT22;70058;42.660;23.366;2023-08-01T14:28:39;33.00;21.90
80367;DHT22;70058;42.660;23.366;2023-08-01T14:31:05;32.90;21.80
80367;DHT22;70058;42.660;23.366;2023-08-01T14:33:32;32.90;22.00
80367;DHT22;70058;42.660;23.366;2023-08-01T14:35:58;33.00;22.10
80367;DHT22;70058;42.660;23.366;2023-08-01T14:38:24;33.00;21.70
80367;DHT22;70058;42.660;23.366;2023-08-01T14:40:49;33.00;22.00
80367;DHT22;70058;42.660;23.366;2023-08-01T14:43:15;33.00;22.00
80367;DHT22;70058;42.660;23.366;2023-08-01T14:45:41;33.00;22.40
80367;DHT22;70058;42.660;23.366;2023-08-01T14:48:07;32.90;22.60
80367;DHT22;70058;42.660;23.366;2023-08-01T14:50:33;32.80;22.70
80367;DHT22;70058;42.660;23.366;2023-08-01T14:53:00;32.80;22.30
80367;DHT22;70058;42.660;23.366;2023-08-01T14:55:31;32.90;22.10
80367;DHT22;70058;42.660;23.366;2023-08-01T14:57:56;32.60;22.00
80367;DHT22;70058;42.660;23.366;2023-08-01T15:00:22;32.60;22.40
80367;DHT22;70058;42.660;23.366;2023-08-01T15:02:48;32.60;22.50
80367;DHT22;70058;42.660;23.366;2023-08-01T15:05:14;32.60;22.40
80367;DHT22;70058;42.660;23.366;2023-08-01T15:07:40;32.50;22.60
80367;DHT22;70058;42.660;23.366;2023-08-01T15:10:06;32.50;22.50
80367;DHT22;70058;42.660;23.366;2023-08-01T15:12:32;32.40;22.40
80367;DHT22;70058;42.660;23.366;2023-08-01T15:14:57;32.60;22.90
80367;DHT22;70058;42.660;23.366;2023-08-01T15:17:23;32.70;22.60